createdAt,value
2022-10-17T00:19:07.641Z,23.76
2022-10-17T00:19:55.605Z,23.76
2022-10-17T00:20:17.472Z,23.76
2022-10-17T00:20:39.045Z,23.76
2022-10-17T00:21:00.615Z,23.78
2022-10-17T00:21:24.829Z,23.78
2022-10-17T00:21:48.719Z,23.77
2022-10-17T00:22:10.276Z,23.81
2022-10-17T00:22:32.886Z,23.81
2022-10-17T00:22:54.481Z,23.81
2022-10-17T00:23:16.170Z,23.84
2022-10-17T00:23:37.730Z,23.84
2022-10-17T00:24:01.168Z,23.87
2022-10-17T00:24:22.740Z,23.88
2022-10-17T00:24:44.296Z,23.87
2022-10-17T00:25:06.711Z,23.87
2022-10-17T00:25:29.187Z,23.86
2022-10-17T00:25:58.176Z,23.89
2022-10-17T00:26:20.769Z,23.90
2022-10-17T00:26:43.380Z,23.92
2022-10-17T00:27:04.932Z,23.91
2022-10-17T00:27:27.198Z,23.93
2022-10-17T00:27:48.926Z,23.92
2022-10-17T00:28:10.959Z,23.89
2022-10-17T00:28:33.964Z,23.92
2022-10-17T00:28:56.331Z,23.95
2022-10-17T00:29:17.951Z,23.96
2022-10-17T00:29:42.327Z,23.94
2022-10-17T00:30:05.230Z,23.95
2022-10-17T00:30:27.826Z,23.94
2022-10-17T00:30:55.660Z,23.96
2022-10-17T00:31:19.839Z,23.95
2022-10-17T00:31:41.534Z,23.96
2022-10-17T00:32:04.116Z,23.94
2022-10-17T00:32:27.300Z,23.97
2022-10-17T00:32:49.079Z,23.91
2022-10-17T00:33:10.615Z,23.94
2022-10-17T00:33:34.437Z,23.89
2022-10-17T00:33:56.150Z,23.96
2022-10-17T00:34:17.714Z,23.85
2022-10-17T00:34:39.557Z,23.92
2022-10-17T00:35:02.228Z,23.94
2022-10-17T00:35:23.908Z,23.95
2022-10-17T00:35:45.501Z,23.95
2022-10-17T00:36:09.512Z,23.97
2022-10-17T00:36:32.036Z,23.98
2022-10-17T00:36:53.603Z,23.98
2022-10-17T00:37:15.199Z,23.97
2022-10-17T00:37:36.849Z,23.97
2022-10-17T00:37:59.420Z,23.98
2022-10-17T00:38:21.204Z,23.99
2022-10-17T00:38:44.492Z,23.97
2022-10-17T00:39:06.057Z,23.98
2022-10-17T00:40:19.168Z,23.99
2022-10-17T00:40:41.975Z,23.98
2022-10-17T00:41:04.355Z,23.99
2022-10-17T00:41:29.116Z,23.97
2022-10-17T00:41:51.911Z,23.93
2022-10-17T01:04:02.556Z,23.78
2022-10-17T01:04:24.213Z,23.78
2022-10-17T01:04:48.762Z,23.76
2022-10-17T01:05:12.006Z,23.78
2022-10-17T01:05:34.007Z,23.79
2022-10-17T01:05:56.864Z,23.79
2022-10-17T01:06:18.701Z,23.81
2022-10-17T01:06:41.300Z,23.81
2022-10-17T01:07:03.311Z,23.82
2022-10-17T01:07:25.426Z,23.84
2022-10-17T01:07:48.970Z,23.83
2022-10-17T01:08:12.930Z,23.83
2022-10-17T01:08:34.721Z,23.84
2022-10-17T01:08:56.682Z,23.85
2022-10-17T01:09:18.575Z,23.87
2022-10-17T01:09:41.438Z,23.90
2022-10-17T01:10:04.961Z,23.86
2022-10-17T01:10:33.199Z,23.90
2022-10-17T01:11:01.709Z,23.89
2022-10-17T01:11:37.557Z,23.93
2022-10-17T01:12:07.492Z,23.92
2022-10-17T01:12:38.500Z,23.91
2022-10-17T01:13:10.134Z,23.88
2022-10-17T01:13:39.519Z,23.89
2022-10-17T01:14:07.252Z,23.92
2022-10-17T01:14:39.065Z,23.91
2022-10-17T01:15:12.109Z,23.92
2022-10-17T01:15:45.357Z,23.97
2022-10-17T01:16:14.938Z,23.97
2022-10-17T01:16:44.833Z,23.95
2022-10-17T01:17:13.480Z,23.97
2022-10-17T01:17:46.038Z,23.97
2022-10-17T01:18:23.891Z,23.99
2022-10-17T01:18:55.942Z,23.98
2022-10-17T01:19:38.413Z,23.98
2022-10-17T01:20:30.460Z,24.01
2022-10-17T01:21:30.328Z,24.04
2022-10-17T01:21:58.622Z,24.02
2022-10-17T01:22:27.157Z,23.88
2022-10-17T01:22:55.384Z,23.99
2022-10-17T01:23:43.402Z,24.00
2022-10-17T01:24:39.288Z,24.03
2022-10-17T01:25:23.652Z,24.06
2022-10-17T01:25:55.172Z,24.07
2022-10-17T01:26:24.654Z,24.06
2022-10-17T01:27:13.560Z,24.05
2022-10-17T01:27:49.904Z,24.04
2022-10-17T01:28:26.856Z,24.08
2022-10-17T01:29:16.370Z,24.09
2022-10-17T01:30:02.935Z,24.08
2022-10-17T01:30:43.770Z,24.10
2022-10-17T01:31:12.003Z,24.08
2022-10-17T01:31:40.295Z,24.09
2022-10-17T01:32:07.391Z,24.08
2022-10-17T01:32:34.437Z,24.09
2022-10-17T01:33:02.268Z,24.10
2022-10-17T01:33:36.756Z,24.11
2022-10-17T01:34:03.786Z,24.12
2022-10-17T01:34:33.302Z,24.13
2022-10-17T01:35:02.020Z,24.14
2022-10-17T01:35:27.893Z,24.13
2022-10-17T01:35:55.000Z,24.08
2022-10-17T01:36:29.355Z,24.14
2022-10-17T01:36:56.075Z,24.15
2022-10-17T01:37:24.748Z,24.14
2022-10-17T01:37:50.612Z,24.15
2022-10-17T01:38:18.749Z,24.13
2022-10-17T01:38:46.549Z,24.13
2022-10-17T01:39:17.280Z,24.13
2022-10-17T01:39:47.690Z,24.13
2022-10-17T01:40:16.113Z,24.13
2022-10-17T01:53:31.132Z,23.87
2022-10-17T01:54:23.885Z,23.82
2022-10-17T01:54:56.704Z,23.87
2022-10-17T01:55:24.806Z,23.86
2022-10-17T01:55:48.939Z,23.90
2022-10-17T01:56:15.591Z,23.89
2022-10-17T01:56:40.351Z,23.91
2022-10-17T01:57:08.983Z,23.91
2022-10-17T01:57:34.541Z,23.91
2022-10-17T01:57:59.353Z,23.86
2022-10-17T01:58:27.112Z,23.95
2022-10-17T01:58:53.920Z,23.97
2022-10-17T01:59:19.541Z,23.98
2022-10-17T01:59:45.891Z,23.98
2022-10-17T02:00:12.520Z,23.98
2022-10-17T02:00:42.465Z,23.99
2022-10-17T02:01:08.073Z,24.00
2022-10-17T02:01:31.549Z,24.01
2022-10-17T02:01:59.434Z,23.98
2022-10-17T02:02:22.227Z,24.01
2022-10-17T02:02:46.519Z,23.96
2022-10-17T02:03:13.430Z,24.00
2022-10-17T02:03:36.619Z,23.99
2022-10-17T02:04:02.712Z,23.98
2022-10-17T02:04:25.261Z,24.00
2022-10-17T02:04:48.485Z,24.04
2022-10-17T02:05:11.433Z,24.05
2022-10-17T02:05:37.543Z,24.06
2022-10-17T02:05:59.143Z,24.03
2022-10-17T02:06:21.953Z,24.03
2022-10-17T02:06:45.833Z,24.03
2022-10-17T02:07:09.280Z,24.04
2022-10-17T02:07:31.828Z,24.05
2022-10-17T02:07:54.509Z,24.07
2022-10-17T02:08:27.073Z,24.03
2022-10-17T02:08:51.329Z,24.03
2022-10-17T02:09:19.231Z,24.06
2022-10-17T02:09:41.041Z,24.03
2022-10-17T02:10:03.716Z,24.02
2022-10-17T02:10:35.648Z,24.02
2022-10-17T02:11:02.653Z,24.03
2022-10-17T02:11:26.255Z,24.03
2022-10-17T02:12:02.735Z,24.04
2022-10-17T02:12:39.395Z,24.05
2022-10-17T02:13:09.241Z,24.04
2022-10-17T02:13:44.207Z,24.04
2022-10-17T02:14:21.324Z,24.04
2022-10-17T02:14:59.115Z,24.01
2022-10-17T02:15:38.982Z,24.02
2022-10-17T02:16:12.097Z,24.03
2022-10-17T02:16:39.723Z,24.02
2022-10-17T02:17:13.739Z,23.94
2022-10-17T02:17:44.832Z,23.99
2022-10-17T02:18:20.347Z,23.98
2022-10-17T02:18:55.680Z,23.98
2022-10-17T02:19:37.941Z,23.98
2022-10-17T02:20:10.320Z,23.99
2022-10-17T02:20:37.265Z,24.00
2022-10-17T02:21:06.121Z,24.01
2022-10-17T02:21:40.992Z,24.04
2022-10-17T02:22:16.397Z,23.87
2022-10-17T02:22:45.977Z,23.91
2022-10-17T02:23:16.212Z,23.82
2022-10-17T02:23:47.100Z,23.92
2022-10-17T02:24:19.541Z,23.96
2022-10-17T02:24:49.040Z,23.98
2022-10-17T02:25:21.504Z,24.02
2022-10-17T02:25:54.165Z,24.01
2022-10-17T02:26:21.044Z,23.89
2022-10-17T02:26:52.235Z,23.96
2022-10-17T02:27:17.124Z,23.98
2022-10-17T02:27:46.709Z,23.97
2022-10-17T02:28:20.878Z,23.98
2022-10-17T02:28:50.777Z,24.01
2022-10-17T02:29:17.925Z,24.01
2022-10-17T02:29:47.656Z,24.01
2022-10-17T02:30:15.650Z,24.01
2022-10-17T02:30:42.524Z,23.92
2022-10-17T02:31:08.803Z,23.92
2022-10-17T02:31:36.416Z,23.97
2022-10-17T02:32:03.817Z,24.00
2022-10-17T02:32:32.173Z,23.98
2022-10-17T02:32:58.638Z,24.00
2022-10-17T02:33:28.635Z,24.05
2022-10-17T02:33:58.476Z,24.06
2022-10-17T02:34:23.728Z,24.10
2022-10-17T02:34:49.218Z,24.10
2022-10-17T02:35:16.380Z,24.12
2022-10-17T02:35:41.892Z,24.12
2022-10-17T02:36:09.095Z,24.14
2022-10-17T02:36:36.600Z,24.07
2022-10-17T02:37:03.348Z,24.14
2022-10-17T02:37:30.195Z,24.13
2022-10-17T02:37:53.235Z,24.13
2022-10-17T02:38:18.120Z,24.12
2022-10-17T02:38:45.192Z,24.13
2022-10-17T02:39:08.799Z,24.14
2022-10-17T02:39:32.133Z,24.10
2022-10-17T02:39:57.019Z,24.13
2022-10-17T02:40:22.813Z,24.12
2022-10-17T02:40:47.501Z,24.09
2022-10-17T02:41:12.653Z,24.12
2022-10-17T02:41:37.458Z,24.14
2022-10-17T02:42:03.535Z,24.12
2022-10-17T02:42:26.714Z,24.13
2022-10-17T02:42:51.430Z,24.13
2022-10-17T02:43:15.339Z,24.14
2022-10-17T02:43:38.048Z,24.16
2022-10-17T02:44:02.420Z,24.17
2022-10-17T02:44:26.519Z,24.15
2022-10-17T02:44:49.950Z,24.13
2022-10-17T02:45:14.595Z,24.14
2022-10-17T02:45:37.758Z,24.14
2022-10-17T02:46:01.134Z,24.14
2022-10-17T02:46:25.661Z,24.15
2022-10-17T02:46:55.936Z,24.14
2022-10-17T02:47:21.768Z,24.17
2022-10-17T02:47:51.675Z,24.15
2022-10-17T02:48:19.792Z,24.08
2022-10-17T02:48:47.662Z,24.13
2022-10-17T02:49:17.185Z,24.13
2022-10-17T02:49:43.839Z,24.08
2022-10-17T02:50:06.596Z,24.12
2022-10-17T02:50:39.720Z,24.11
2022-10-17T02:51:07.680Z,24.11
2022-10-17T02:51:36.964Z,24.12
2022-10-17T02:52:07.267Z,24.12
2022-10-17T02:52:35.248Z,24.13
2022-10-17T02:53:02.973Z,24.14
2022-10-17T02:53:30.212Z,24.15
2022-10-17T02:54:06.624Z,24.14
2022-10-17T02:54:37.087Z,24.06
2022-10-17T02:55:03.298Z,24.11
2022-10-17T02:55:31.268Z,24.17
2022-10-17T02:55:58.844Z,24.17
2022-10-17T02:56:21.633Z,24.19
2022-10-17T02:56:51.357Z,24.19
2022-10-17T02:57:19.790Z,24.12
2022-10-17T02:57:44.863Z,24.15
2022-10-17T02:58:13.459Z,24.08
2022-10-17T02:58:37.390Z,24.10
2022-10-17T02:59:02.095Z,24.13
2022-10-17T02:59:26.528Z,24.07
2022-10-17T02:59:50.208Z,24.12
2022-10-17T03:00:14.267Z,24.14
2022-10-17T03:00:39.105Z,24.12
2022-10-17T03:01:01.141Z,24.13
2022-10-17T03:01:24.904Z,24.12
2022-10-17T03:01:46.919Z,24.12
2022-10-17T03:02:09.624Z,24.10
2022-10-17T03:02:39.133Z,24.09
2022-10-17T03:03:01.341Z,24.11
2022-10-17T03:03:26.148Z,24.14
2022-10-17T03:03:48.926Z,24.15
2022-10-17T03:04:12.885Z,24.17
2022-10-17T03:04:34.904Z,24.16
2022-10-17T03:04:56.713Z,24.15
2022-10-17T03:05:21.345Z,24.10
2022-10-17T03:05:43.858Z,24.12
2022-10-17T03:06:05.661Z,24.12
2022-10-17T03:06:27.244Z,24.14
2022-10-17T03:06:50.381Z,24.13
2022-10-17T03:07:14.555Z,24.16
2022-10-17T03:07:36.147Z,24.18
2022-10-17T03:07:57.803Z,24.17
2022-10-17T03:08:20.297Z,24.18
2022-10-17T03:08:41.899Z,24.18
2022-10-17T03:09:06.474Z,24.17
2022-10-17T03:09:29.308Z,24.17
2022-10-17T03:09:50.999Z,24.16
2022-10-17T03:10:13.022Z,24.18
2022-10-17T03:10:35.563Z,24.17
2022-10-17T03:10:57.125Z,24.16
2022-10-17T03:11:20.208Z,24.17
2022-10-17T03:11:42.021Z,24.19
2022-10-17T03:12:04.670Z,24.18
2022-10-17T03:12:27.468Z,24.18
2022-10-17T03:12:49.401Z,24.20
2022-10-17T03:13:11.128Z,24.21
2022-10-17T03:13:38.958Z,24.22
2022-10-17T03:14:02.585Z,24.21
2022-10-17T03:14:24.349Z,24.22
2022-10-17T03:14:46.208Z,24.22
2022-10-17T03:15:08.787Z,24.23
2022-10-17T03:15:31.420Z,24.22
2022-10-17T03:15:53.524Z,24.20
2022-10-17T03:16:15.109Z,24.20
2022-10-17T03:16:36.687Z,24.20
2022-10-17T03:17:00.319Z,24.20
2022-10-17T03:17:22.049Z,24.22
2022-10-17T03:18:11.635Z,24.20
2022-10-17T03:18:34.187Z,24.21
2022-10-17T03:18:57.652Z,24.18
2022-10-17T03:19:19.260Z,24.16
2022-10-17T03:19:40.832Z,24.20
2022-10-17T03:20:04.950Z,24.20
2022-10-17T03:20:26.542Z,24.18
2022-10-17T03:20:48.592Z,24.18
2022-10-17T03:21:10.226Z,24.18
2022-10-17T03:21:31.862Z,24.18
2022-10-17T03:21:54.449Z,24.19
2022-10-17T03:22:16.707Z,24.19
2022-10-17T03:22:40.615Z,24.19
2022-10-17T03:23:02.294Z,24.19
2022-10-17T03:23:25.217Z,24.08
2022-10-17T03:23:47.379Z,24.21
2022-10-17T03:24:11.315Z,24.21
2022-10-17T03:24:33.618Z,24.20
2022-10-17T03:24:56.196Z,24.23
2022-10-17T03:25:17.800Z,24.23
2022-10-17T03:25:42.480Z,24.22
2022-10-17T03:26:04.272Z,24.17
2022-10-17T03:26:27.285Z,24.23
2022-10-17T03:26:48.941Z,24.21
2022-10-17T03:27:10.678Z,24.23
2022-10-17T03:27:33.458Z,24.23
2022-10-17T03:27:58.630Z,24.23
2022-10-17T03:28:21.204Z,24.23
2022-10-17T03:28:43.018Z,24.24
2022-10-17T03:29:05.143Z,24.25
2022-10-17T03:29:29.295Z,24.24
2022-10-17T03:29:51.372Z,24.25
2022-10-17T03:30:13.059Z,24.26
2022-10-17T03:30:34.921Z,24.25
2022-10-17T03:30:56.975Z,24.25
2022-10-17T03:31:19.501Z,24.25
2022-10-17T03:31:41.869Z,24.23
2022-10-17T03:32:05.179Z,24.21
2022-10-17T03:32:26.801Z,24.21
2022-10-17T03:32:49.042Z,24.21
2022-10-17T03:33:11.620Z,24.20
2022-10-17T03:33:33.387Z,24.18
2022-10-17T03:33:55.013Z,24.17
2022-10-17T03:34:18.661Z,24.17
2022-10-17T03:34:41.354Z,24.10
2022-10-17T03:35:04.599Z,24.12
2022-10-17T03:35:26.842Z,24.10
2022-10-17T03:36:19.038Z,24.06
2022-10-17T03:36:41.660Z,23.82
2022-10-17T03:37:04.029Z,24.06
2022-10-17T03:37:27.547Z,24.05
2022-10-17T03:37:50.615Z,24.08
2022-10-17T03:38:15.972Z,24.06
2022-10-17T03:38:37.999Z,24.09
2022-10-17T03:38:59.865Z,24.04
2022-10-17T03:39:25.111Z,24.08
2022-10-17T03:39:46.843Z,24.08
2022-10-17T03:40:09.481Z,24.09
2022-10-17T03:40:31.035Z,24.10
2022-10-17T03:40:56.172Z,24.10
2022-10-17T03:41:17.870Z,24.08
2022-10-17T03:41:39.753Z,24.08
2022-10-17T03:42:01.409Z,24.09
2022-10-17T03:42:24.650Z,24.12
2022-10-17T03:42:46.220Z,24.08
2022-10-17T03:43:08.307Z,24.14
2022-10-17T03:43:30.208Z,24.15
2022-10-17T03:43:54.561Z,24.14
2022-10-17T03:44:16.569Z,24.15
2022-10-17T03:44:38.137Z,24.16
2022-10-17T03:44:59.882Z,24.16
2022-10-17T03:45:22.506Z,24.16
2022-10-17T03:45:45.152Z,24.16
2022-10-17T03:46:07.336Z,24.16
2022-10-17T03:46:29.773Z,24.15
2022-10-17T03:46:55.506Z,24.19
2022-10-17T03:47:18.081Z,24.20
2022-10-17T03:47:40.481Z,24.22
2022-10-17T03:48:02.085Z,24.20
2022-10-17T03:48:24.833Z,24.22
2022-10-17T03:48:47.532Z,24.21
2022-10-17T03:49:09.840Z,24.22
2022-10-17T03:49:31.418Z,24.22
2022-10-17T03:49:53.696Z,24.27
2022-10-17T03:50:16.024Z,24.27
2022-10-17T03:50:39.555Z,24.23
2022-10-17T03:51:02.617Z,24.26
2022-10-17T03:51:25.097Z,24.28
2022-10-17T03:51:52.375Z,24.29
2022-10-17T03:52:14.549Z,24.30
2022-10-17T03:52:36.152Z,24.31
2022-10-17T03:52:58.245Z,24.26
2022-10-17T03:53:20.804Z,24.26
2022-10-17T03:53:42.616Z,24.25
2022-10-17T03:54:04.369Z,24.28
2022-10-17T03:54:27.377Z,24.24
2022-10-17T03:54:51.120Z,24.25
2022-10-17T03:55:13.280Z,24.29
2022-10-17T03:55:35.281Z,24.28
2022-10-17T03:55:57.578Z,24.27
2022-10-17T03:56:21.470Z,24.29
2022-10-17T03:56:53.273Z,24.23
2022-10-17T03:57:15.333Z,24.19
2022-10-17T03:57:37.154Z,24.20
2022-10-17T03:58:01.116Z,24.25
2022-10-17T03:58:23.192Z,24.26
2022-10-17T03:58:46.473Z,24.21
2022-10-17T03:59:12.938Z,24.26
2022-10-17T03:59:35.570Z,24.27
2022-10-17T04:00:02.025Z,24.26
2022-10-17T04:00:24.655Z,24.23
2022-10-17T04:00:51.009Z,24.22
2022-10-17T04:01:15.045Z,24.29
2022-10-17T04:01:37.754Z,24.29
2022-10-17T04:01:59.367Z,24.29
2022-10-17T04:02:20.990Z,24.32
2022-10-17T04:02:44.921Z,24.31
2022-10-17T04:03:17.126Z,24.30
2022-10-17T04:03:39.717Z,24.31
2022-10-17T04:04:01.674Z,24.30
2022-10-17T04:04:27.481Z,24.32
2022-10-17T04:04:49.075Z,24.31
2022-10-17T04:05:11.052Z,24.31
2022-10-17T04:05:32.625Z,24.30
2022-10-17T04:05:54.464Z,24.31
2022-10-17T04:06:16.975Z,24.29
2022-10-17T04:06:39.057Z,24.31
2022-10-17T04:07:00.771Z,24.31
2022-10-17T04:07:22.496Z,24.33
2022-10-17T04:07:45.153Z,24.32
2022-10-17T04:08:07.586Z,24.22
2022-10-17T04:08:52.047Z,24.18
2022-10-17T04:09:32.159Z,24.25
2022-10-17T04:09:58.899Z,24.28
2022-10-17T04:10:20.562Z,24.28
2022-10-17T04:10:42.780Z,24.28
2022-10-17T04:11:07.793Z,24.26
2022-10-17T04:11:29.677Z,24.28
2022-10-17T04:11:54.601Z,24.26
2022-10-17T04:12:18.344Z,24.28
2022-10-17T04:12:39.919Z,24.27
2022-10-17T04:13:01.535Z,24.16
2022-10-17T04:13:23.135Z,24.30
2022-10-17T04:13:46.688Z,24.28
2022-10-17T04:14:09.805Z,24.30
2022-10-17T04:14:33.088Z,24.25
2022-10-17T04:14:57.281Z,24.27
2022-10-17T04:15:19.838Z,24.24
2022-10-17T04:15:41.501Z,24.25
2022-10-17T04:16:05.855Z,24.29
2022-10-17T04:16:29.223Z,24.25
2022-10-17T04:16:55.136Z,24.26
2022-10-17T04:17:16.708Z,24.26
2022-10-17T04:17:39.067Z,24.25
2022-10-17T04:18:02.818Z,24.27
2022-10-17T04:18:24.792Z,24.24
2022-10-17T04:18:46.848Z,24.25
2022-10-17T04:19:12.525Z,24.14
2022-10-17T04:19:38.087Z,24.20
2022-10-17T04:19:59.693Z,24.20
2022-10-17T04:20:21.569Z,24.16
2022-10-17T04:20:43.748Z,24.13
2022-10-17T04:21:08.115Z,24.18
2022-10-17T04:21:29.818Z,24.17
2022-10-17T04:21:55.138Z,24.18
2022-10-17T04:22:16.966Z,24.12
2022-10-17T04:22:39.601Z,24.09
2022-10-17T04:23:01.199Z,24.13
2022-10-17T04:23:22.921Z,24.15
2022-10-17T04:23:47.388Z,24.13
2022-10-17T04:24:25.111Z,24.13
2022-10-17T04:25:00.576Z,24.10
2022-10-17T04:25:27.842Z,24.11
2022-10-17T04:25:49.671Z,24.03
2022-10-17T04:26:12.278Z,24.04
2022-10-17T04:26:34.295Z,24.07
2022-10-17T04:26:55.979Z,24.10
2022-10-17T04:27:20.283Z,24.12
2022-10-17T04:27:43.894Z,24.08
2022-10-17T04:28:05.579Z,24.12
2022-10-17T04:28:28.518Z,24.04
2022-10-17T04:28:50.586Z,24.06
2022-10-17T04:29:13.117Z,24.05
2022-10-17T04:29:36.475Z,24.03
2022-10-17T04:30:11.795Z,24.05
2022-10-17T04:30:34.032Z,24.01
2022-10-17T04:30:58.181Z,23.94
2022-10-17T04:31:20.198Z,23.95
2022-10-17T04:32:04.860Z,23.91
2022-10-17T04:32:40.289Z,23.94
2022-10-17T04:33:07.696Z,24.02
2022-10-17T04:33:29.444Z,24.05
2022-10-17T04:33:51.206Z,24.12
2022-10-17T04:34:14.796Z,24.16
2022-10-17T04:34:36.404Z,24.12
2022-10-17T04:34:58.051Z,24.16
2022-10-17T04:35:19.614Z,24.19
2022-10-17T04:35:56.467Z,24.23
2022-10-17T04:36:19.848Z,24.21
2022-10-17T04:36:41.448Z,24.23
2022-10-17T04:37:04.225Z,24.25
2022-10-17T04:37:26.089Z,24.26
2022-10-17T04:37:49.612Z,24.24
2022-10-17T04:38:15.217Z,24.26
2022-10-17T04:38:39.112Z,24.29
2022-10-17T04:39:02.771Z,24.29
2022-10-17T04:39:26.624Z,24.30
2022-10-17T04:39:48.237Z,24.26
2022-10-17T04:40:11.803Z,24.27
2022-10-17T04:40:33.481Z,24.30
2022-10-17T04:40:58.212Z,24.31
2022-10-17T04:41:20.808Z,24.31
2022-10-17T04:41:42.393Z,24.33
2022-10-17T04:42:04.086Z,24.35
2022-10-17T04:42:26.743Z,24.34
2022-10-17T04:42:49.042Z,24.30
2022-10-17T04:43:14.540Z,24.29
2022-10-17T04:43:37.874Z,24.23
2022-10-17T04:44:00.588Z,24.25
2022-10-17T04:44:22.975Z,24.27
2022-10-17T04:44:46.901Z,24.27
2022-10-17T04:45:11.299Z,24.29
2022-10-17T04:45:34.182Z,24.16
2022-10-17T04:45:58.480Z,24.16
2022-10-17T04:46:20.028Z,24.22
2022-10-17T04:46:42.654Z,24.24
2022-10-17T04:47:05.223Z,24.02
2022-10-17T04:47:26.822Z,24.13
2022-10-17T04:47:48.393Z,24.15
2022-10-17T04:48:09.965Z,24.21
2022-10-17T04:48:34.525Z,24.17
2022-10-17T04:48:56.178Z,24.24
2022-10-17T04:49:18.161Z,24.24
2022-10-17T04:49:44.053Z,24.21
2022-10-17T04:50:06.742Z,24.22
2022-10-17T04:50:29.871Z,24.02
2022-10-17T04:51:18.807Z,24.14
2022-10-17T04:52:05.689Z,24.16
2022-10-17T04:52:42.616Z,24.19
2022-10-17T04:53:04.184Z,24.15
2022-10-17T04:53:27.172Z,24.16
2022-10-17T04:53:49.633Z,24.19
2022-10-17T04:54:11.262Z,24.12
2022-10-17T04:54:36.221Z,24.15
2022-10-17T04:55:03.440Z,24.18
2022-10-17T04:55:26.452Z,24.17
2022-10-17T04:55:48.104Z,24.04
2022-10-17T04:56:11.665Z,24.16
2022-10-17T04:56:34.349Z,24.18
2022-10-17T04:56:56.027Z,24.20
2022-10-17T04:57:18.577Z,24.18
2022-10-17T04:57:48.863Z,24.22
2022-10-17T04:58:15.675Z,24.26
2022-10-17T04:58:38.856Z,24.18
2022-10-17T04:59:00.584Z,24.17
2022-10-17T04:59:22.182Z,24.08
2022-10-17T04:59:50.086Z,24.13
2022-10-17T05:00:32.992Z,24.18
2022-10-17T05:00:58.648Z,24.21
2022-10-17T05:01:23.738Z,24.15
2022-10-17T05:01:48.830Z,24.15
2022-10-17T05:02:11.401Z,24.19
2022-10-17T05:02:33.159Z,24.18
2022-10-17T05:02:56.691Z,24.19
2022-10-17T05:03:18.308Z,24.14
2022-10-17T05:03:41.345Z,24.21
2022-10-17T05:04:03.155Z,24.21
2022-10-17T05:04:25.287Z,24.07
2022-10-17T05:04:47.770Z,24.00
2022-10-17T05:05:11.205Z,23.98
2022-10-17T05:05:33.181Z,23.97
2022-10-17T05:05:56.283Z,24.05
2022-10-17T05:06:21.005Z,24.05
2022-10-17T05:06:57.699Z,24.05
2022-10-17T05:07:40.954Z,24.10
2022-10-17T05:08:08.491Z,24.10
2022-10-17T05:08:30.188Z,24.15
2022-10-17T05:08:52.332Z,24.14
2022-10-17T05:09:16.020Z,24.15
2022-10-17T05:09:38.173Z,24.20
2022-10-17T05:10:00.217Z,24.19
2022-10-17T05:10:21.993Z,24.18
2022-10-17T05:10:49.659Z,24.18
2022-10-17T05:11:17.124Z,24.20
2022-10-17T05:11:38.711Z,24.22
2022-10-17T05:12:00.320Z,24.25
2022-10-17T05:12:23.867Z,24.27
2022-10-17T05:12:47.137Z,24.28
2022-10-17T05:13:10.207Z,24.29
2022-10-17T05:13:32.716Z,24.26
2022-10-17T05:13:57.975Z,24.31
2022-10-17T05:14:19.601Z,24.31
2022-10-17T05:14:41.302Z,24.25
2022-10-17T05:15:02.897Z,24.18
2022-10-17T05:15:26.312Z,24.18
2022-10-17T05:15:49.617Z,24.13
2022-10-17T05:16:11.218Z,24.13
2022-10-17T05:16:32.881Z,24.16
2022-10-17T05:16:55.609Z,24.18
2022-10-17T05:17:17.306Z,24.22
2022-10-17T05:17:39.240Z,24.24
2022-10-17T05:18:01.941Z,24.15
2022-10-17T05:18:25.591Z,24.19
2022-10-17T05:18:52.712Z,24.22
2022-10-17T05:19:14.998Z,24.25
2022-10-17T05:19:41.158Z,24.27
2022-10-17T05:20:05.319Z,24.25
2022-10-17T05:20:28.529Z,24.26
2022-10-17T05:20:50.235Z,24.25
2022-10-17T05:21:12.822Z,24.23
2022-10-17T05:21:37.209Z,24.25
2022-10-17T05:21:59.672Z,24.25
2022-10-17T05:22:21.263Z,24.26
2022-10-17T05:22:44.681Z,24.20
2022-10-17T05:23:06.668Z,24.17
2022-10-17T05:23:33.987Z,24.20
2022-10-17T05:23:56.856Z,24.22
2022-10-17T05:24:18.478Z,24.19
2022-10-17T05:24:40.059Z,24.21
2022-10-17T05:25:01.658Z,23.94
2022-10-17T05:25:24.269Z,23.92
2022-10-17T05:25:46.836Z,23.99
2022-10-17T05:26:09.763Z,24.03
2022-10-17T05:26:31.369Z,24.05
2022-10-17T05:26:53.021Z,24.02
2022-10-17T05:27:15.583Z,24.02
2022-10-17T05:27:38.130Z,24.06
2022-10-17T05:27:59.752Z,24.07
2022-10-17T05:28:21.436Z,24.14
2022-10-17T05:28:44.184Z,24.16
2022-10-17T05:29:06.099Z,24.18
2022-10-17T05:29:32.039Z,24.21
2022-10-17T05:30:07.498Z,24.20
2022-10-17T05:30:35.168Z,24.17
2022-10-17T05:31:03.045Z,24.07
2022-10-17T05:31:24.649Z,24.11
2022-10-17T05:31:46.382Z,24.16
2022-10-17T05:32:08.932Z,24.17
2022-10-17T05:32:30.953Z,24.13
2022-10-17T05:32:55.581Z,24.08
2022-10-17T05:33:18.330Z,24.10
2022-10-17T05:33:40.805Z,24.12
2022-10-17T05:34:03.270Z,24.06
2022-10-17T05:34:27.336Z,24.15
2022-10-17T05:34:49.860Z,24.17
2022-10-17T05:35:11.881Z,24.16
2022-10-17T05:35:33.861Z,24.07
2022-10-17T05:35:56.384Z,24.10
2022-10-17T05:36:18.924Z,24.10
2022-10-17T05:36:40.560Z,24.14
2022-10-17T05:37:02.708Z,24.17
2022-10-17T05:37:24.523Z,24.14
2022-10-17T05:37:50.131Z,24.14
2022-10-17T05:38:13.070Z,24.18
2022-10-17T05:38:36.665Z,24.18
2022-10-17T05:38:59.222Z,24.21
2022-10-17T05:39:23.281Z,24.21
2022-10-17T05:39:50.647Z,24.15
2022-10-17T05:40:13.603Z,24.09
2022-10-17T05:40:35.974Z,24.13
2022-10-17T05:40:59.645Z,24.03
2022-10-17T05:41:22.919Z,24.18
2022-10-17T05:41:44.869Z,24.19
2022-10-17T05:42:07.630Z,24.20
2022-10-17T05:42:31.165Z,24.22
2022-10-17T05:42:53.163Z,24.21
2022-10-17T05:43:16.259Z,24.24
2022-10-17T05:43:38.713Z,24.24
2022-10-17T05:44:04.746Z,24.28
2022-10-17T05:44:36.725Z,24.27
2022-10-17T05:44:58.422Z,24.27
2022-10-17T05:45:21.980Z,24.27
2022-10-17T05:45:43.595Z,24.14
2022-10-17T05:46:11.092Z,24.10
2022-10-17T05:46:33.573Z,24.13
2022-10-17T05:46:56.197Z,24.10
2022-10-17T05:47:18.219Z,24.05
2022-10-17T05:47:40.326Z,24.10
2022-10-17T05:48:01.941Z,24.10
2022-10-17T05:48:25.291Z,24.06
2022-10-17T05:48:47.614Z,23.97
2022-10-17T05:49:15.070Z,23.76
2022-10-17T05:49:51.483Z,23.85
2022-10-17T05:50:17.359Z,23.96
2022-10-17T05:50:58.753Z,23.92
2022-10-17T05:51:21.423Z,23.88
2022-10-17T05:51:43.058Z,23.94
2022-10-17T05:52:05.069Z,23.99
2022-10-17T05:52:33.030Z,24.02
2022-10-17T05:53:02.936Z,24.00
2022-10-17T05:53:24.811Z,23.97
2022-10-17T05:53:47.653Z,23.98
2022-10-17T05:54:16.426Z,23.99
2022-10-17T05:54:38.004Z,23.93
2022-10-17T05:55:00.977Z,23.91
2022-10-17T05:55:23.170Z,23.97
2022-10-17T05:55:44.975Z,23.98
2022-10-17T05:56:10.545Z,24.02
2022-10-17T05:56:34.033Z,24.03
2022-10-17T05:56:56.324Z,23.94
2022-10-17T05:57:24.845Z,24.06
2022-10-17T05:57:47.515Z,24.06
2022-10-17T05:58:21.752Z,24.07
2022-10-17T05:58:50.609Z,24.10
2022-10-17T05:59:36.228Z,24.01
2022-10-17T06:00:02.566Z,24.05
2022-10-17T06:00:35.812Z,24.02
2022-10-17T06:00:59.965Z,24.03
2022-10-17T06:01:22.207Z,24.04
2022-10-17T06:01:43.812Z,24.00
2022-10-17T06:02:06.686Z,23.94
2022-10-17T06:02:29.632Z,23.98
2022-10-17T06:02:51.507Z,23.95
2022-10-17T06:03:14.309Z,24.03
2022-10-17T06:03:36.880Z,24.01
2022-10-17T06:04:00.453Z,24.03
2022-10-17T06:04:22.130Z,24.01
2022-10-17T06:04:46.007Z,24.01
2022-10-17T06:05:09.198Z,24.03
2022-10-17T06:05:31.045Z,24.00
2022-10-17T06:05:53.998Z,23.97
2022-10-17T06:06:18.383Z,24.02
2022-10-17T06:06:41.433Z,24.02
2022-10-17T06:07:05.126Z,24.03
2022-10-17T06:07:28.939Z,24.05
2022-10-17T06:07:52.448Z,24.03
2022-10-17T06:08:14.768Z,24.06
2022-10-17T06:08:37.757Z,24.08
2022-10-17T06:09:01.339Z,24.04
2022-10-17T06:09:28.409Z,24.02
2022-10-17T06:09:51.160Z,24.06
2022-10-17T06:10:14.985Z,24.03
2022-10-17T06:10:37.540Z,24.05
2022-10-17T06:10:59.161Z,24.03
2022-10-17T06:11:20.729Z,24.07
2022-10-17T06:11:43.670Z,24.08
2022-10-17T06:12:07.753Z,24.07
2022-10-17T06:12:29.658Z,24.09
2022-10-17T06:12:51.490Z,24.07
2022-10-17T06:13:13.786Z,24.09
2022-10-17T06:13:36.430Z,24.13
2022-10-17T06:14:05.265Z,24.09
2022-10-17T06:14:26.854Z,24.18
2022-10-17T06:14:53.096Z,24.17
2022-10-17T06:15:15.758Z,24.17
2022-10-17T06:15:41.161Z,24.19
2022-10-17T06:16:05.578Z,24.07
2022-10-17T06:16:28.471Z,24.17
2022-10-17T06:16:50.145Z,24.20
2022-10-17T06:17:15.799Z,24.19
2022-10-17T06:17:39.332Z,24.20
2022-10-17T06:18:00.940Z,24.23
2022-10-17T06:18:22.831Z,24.21
2022-10-17T06:18:44.466Z,24.24